sensor_id;sensor_type;location;lat;lon;timestamp;pressure;altitude;pressure_sealevel;temperature
72675;BMP280;60752;53.962;9.614;2022-10-31T00:00:18;101821.19;;;11.60
72675;BMP280;60752;53.962;9.614;2022-10-31T00:05:19;101811.94;;;11.53
72675;BMP280;60752;53.962;9.614;2022-10-31T00:10:20;101813.47;;;11.49
72675;BMP280;60752;53.962;9.614;2022-10-31T00:15:21;101818.22;;;11.52
72675;BMP280;60752;53.962;9.614;2022-10-31T00:20:21;101822.97;;;11.55
72675;BMP280;60752;53.962;9.614;2022-10-31T00:25:27;101820.19;;;11.66
72675;BMP280;60752;53.962;9.614;2022-10-31T00:30:28;101832.75;;;11.91
72675;BMP280;60752;53.962;9.614;2022-10-31T00:35:29;101817.84;;;11.97
72675;BMP280;60752;53.962;9.614;2022-10-31T00:40:30;101820.19;;;11.98
72675;BMP280;60752;53.962;9.614;2022-10-31T00:45:31;101835.56;;;12.17
72675;BMP280;60752;53.962;9.614;2022-10-31T00:50:31;101835.56;;;12.17
72675;BMP280;60752;53.962;9.614;2022-10-31T00:55:33;101822.69;;;12.15
72675;BMP280;60752;53.962;9.614;2022-10-31T01:00:34;101832.41;;;12.20
72675;BMP280;60752;53.962;9.614;2022-10-31T01:05:34;101838.47;;;12.20
72675;BMP280;60752;53.962;9.614;2022-10-31T01:10:36;101845.03;;;12.23
72675;BMP280;60752;53.962;9.614;2022-10-31T01:15:37;101845.84;;;12.23
72675;BMP280;60752;53.962;9.614;2022-10-31T01:20:37;101847.69;;;12.28
72675;BMP280;60752;53.962;9.614;2022-10-31T01:25:39;101862.97;;;12.36
72675;BMP280;60752;53.962;9.614;2022-10-31T01:30:39;101869.56;;;12.39
72675;BMP280;60752;53.962;9.614;2022-10-31T01:35:40;101875.88;;;12.43
72675;BMP280;60752;53.962;9.614;2022-10-31T01:40:41;101879.13;;;12.60
72675;BMP280;60752;53.962;9.614;2022-10-31T01:45:44;101884.69;;;12.63
72675;BMP280;60752;53.962;9.614;2022-10-31T01:50:48;101885.19;;;12.65
72675;BMP280;60752;53.962;9.614;2022-10-31T01:55:52;101895.72;;;12.71
72675;BMP280;60752;53.962;9.614;2022-10-31T02:00:56;101887.06;;;12.70
72675;BMP280;60752;53.962;9.614;2022-10-31T02:05:57;101890.44;;;12.65
72675;BMP280;60752;53.962;9.614;2022-10-31T02:11:01;101886.00;;;12.61
72675;BMP280;60752;53.962;9.614;2022-10-31T02:16:01;101898.59;;;12.64
72675;BMP280;60752;53.962;9.614;2022-10-31T02:21:08;101904.38;;;12.61
72675;BMP280;60752;53.962;9.614;2022-10-31T02:26:38;101913.88;;;12.67
72675;BMP280;60752;53.962;9.614;2022-10-31T02:31:46;101917.75;;;12.64
72675;BMP280;60752;53.962;9.614;2022-10-31T02:36:54;101920.16;;;12.71
72675;BMP280;60752;53.962;9.614;2022-10-31T02:42:02;101929.88;;;12.71
72675;BMP280;60752;53.962;9.614;2022-10-31T02:47:08;101920.44;;;12.70
72675;BMP280;60752;53.962;9.614;2022-10-31T02:52:16;101918.59;;;12.70
72675;BMP280;60752;53.962;9.614;2022-10-31T02:57:20;101915.13;;;12.64
72675;BMP280;60752;53.962;9.614;2022-10-31T03:02:36;101918.34;;;12.66
72675;BMP280;60752;53.962;9.614;2022-10-31T03:07:49;101928.03;;;12.66
72675;BMP280;60752;53.962;9.614;2022-10-31T03:12:59;101938.53;;;12.66
72675;BMP280;60752;53.962;9.614;2022-10-31T03:18:05;101940.91;;;12.62
72675;BMP280;60752;53.962;9.614;2022-10-31T03:23:10;101955.31;;;12.60
72675;BMP280;60752;53.962;9.614;2022-10-31T03:28:14;101953.72;;;12.59
72675;BMP280;60752;53.962;9.614;2022-10-31T03:33:21;101952.66;;;12.55
72675;BMP280;60752;53.962;9.614;2022-10-31T03:38:23;101962.34;;;12.54
72675;BMP280;60752;53.962;9.614;2022-10-31T03:43:28;101960.75;;;12.48
72675;BMP280;60752;53.962;9.614;2022-10-31T03:48:30;101978.81;;;12.45
72675;BMP280;60752;53.962;9.614;2022-10-31T03:53:32;101981.13;;;12.36
72675;BMP280;60752;53.962;9.614;2022-10-31T03:58:36;101986.09;;;12.32
72675;BMP280;60752;53.962;9.614;2022-10-31T04:03:40;101988.91;;;12.26
72675;BMP280;60752;53.962;9.614;2022-10-31T04:08:44;102000.50;;;12.30
72675;BMP280;60752;53.962;9.614;2022-10-31T04:13:45;101994.72;;;12.28
72675;BMP280;60752;53.962;9.614;2022-10-31T04:18:48;101983.91;;;12.24
72675;BMP280;60752;53.962;9.614;2022-10-31T04:23:48;102003.63;;;12.27
72675;BMP280;60752;53.962;9.614;2022-10-31T04:28:48;102003.38;;;12.28
72675;BMP280;60752;53.962;9.614;2022-10-31T04:33:50;101988.03;;;12.15
72675;BMP280;60752;53.962;9.614;2022-10-31T04:38:51;101999.59;;;12.14
72675;BMP280;60752;53.962;9.614;2022-10-31T04:43:51;101992.41;;;12.05
72675;BMP280;60752;53.962;9.614;2022-10-31T04:48:53;102005.03;;;12.13
72675;BMP280;60752;53.962;9.614;2022-10-31T04:53:53;102004.00;;;12.14
72675;BMP280;60752;53.962;9.614;2022-10-31T04:58:54;102017.31;;;12.29
72675;BMP280;60752;53.962;9.614;2022-10-31T05:03:55;102013.38;;;12.31
72675;BMP280;60752;53.962;9.614;2022-10-31T05:08:56;102016.59;;;12.39
72675;BMP280;60752;53.962;9.614;2022-10-31T05:13:56;102012.44;;;12.43
72675;BMP280;60752;53.962;9.614;2022-10-31T05:18:58;102019.09;;;12.50
72675;BMP280;60752;53.962;9.614;2022-10-31T05:23:59;102019.56;;;12.47
72675;BMP280;60752;53.962;9.614;2022-10-31T05:28:59;102034.88;;;12.55
72675;BMP280;60752;53.962;9.614;2022-10-31T05:34:01;102032.78;;;12.57
72675;BMP280;60752;53.962;9.614;2022-10-31T05:39:02;102023.25;;;12.51
72675;BMP280;60752;53.962;9.614;2022-10-31T05:44:03;102020.38;;;12.53
72675;BMP280;60752;53.962;9.614;2022-10-31T05:49:04;102028.84;;;12.60
72675;BMP280;60752;53.962;9.614;2022-10-31T05:54:05;102023.59;;;12.55
72675;BMP280;60752;53.962;9.614;2022-10-31T05:59:05;102036.97;;;12.58
72675;BMP280;60752;53.962;9.614;2022-10-31T06:04:07;102033.09;;;12.61
72675;BMP280;60752;53.962;9.614;2022-10-31T06:09:08;102023.34;;;12.56
72675;BMP280;60752;53.962;9.614;2022-10-31T06:14:08;102024.16;;;12.62
72675;BMP280;60752;53.962;9.614;2022-10-31T06:19:10;102040.44;;;12.64
72675;BMP280;60752;53.962;9.614;2022-10-31T06:24:11;102037.53;;;12.60
72675;BMP280;60752;53.962;9.614;2022-10-31T06:29:11;102037.81;;;12.64
72675;BMP280;60752;53.962;9.614;2022-10-31T06:34:13;102053.31;;;12.65
72675;BMP280;60752;53.962;9.614;2022-10-31T06:39:13;102064.16;;;12.69
72675;BMP280;60752;53.962;9.614;2022-10-31T06:44:14;102067.56;;;12.70
72675;BMP280;60752;53.962;9.614;2022-10-31T06:49:16;102076.78;;;12.72
72675;BMP280;60752;53.962;9.614;2022-10-31T06:54:16;102076.28;;;12.75
72675;BMP280;60752;53.962;9.614;2022-10-31T06:59:17;102087.31;;;12.77
72675;BMP280;60752;53.962;9.614;2022-10-31T07:04:19;102088.91;;;12.78
72675;BMP280;60752;53.962;9.614;2022-10-31T07:09:19;102101.28;;;12.83
72675;BMP280;60752;53.962;9.614;2022-10-31T07:14:20;102094.19;;;12.83
72675;BMP280;60752;53.962;9.614;2022-10-31T07:19:21;102104.50;;;12.90
72675;BMP280;60752;53.962;9.614;2022-10-31T07:24:22;102112.94;;;12.92
72675;BMP280;60752;53.962;9.614;2022-10-31T07:29:22;102104.25;;;12.91
72675;BMP280;60752;53.962;9.614;2022-10-31T07:34:24;102111.69;;;12.99
72675;BMP280;60752;53.962;9.614;2022-10-31T07:39:24;102112.19;;;12.96
72675;BMP280;60752;53.962;9.614;2022-10-31T07:44:25;102116.16;;;12.99
72675;BMP280;60752;53.962;9.614;2022-10-31T07:49:26;102121.97;;;13.01
72675;BMP280;60752;53.962;9.614;2022-10-31T07:54:27;102131.97;;;13.04
72675;BMP280;60752;53.962;9.614;2022-10-31T07:59:27;102125.13;;;13.03
72675;BMP280;60752;53.962;9.614;2022-10-31T08:04:29;102116.44;;;13.03
72675;BMP280;60752;53.962;9.614;2022-10-31T08:09:29;102129.38;;;13.09
72675;BMP280;60752;53.962;9.614;2022-10-31T08:14:30;102124.09;;;13.09
72675;BMP280;60752;53.962;9.614;2022-10-31T08:19:32;102135.16;;;13.11
72675;BMP280;60752;53.962;9.614;2022-10-31T08:24:32;102134.38;;;13.11
72675;BMP280;60752;53.962;9.614;2022-10-31T08:29:33;102140.72;;;13.15
72675;BMP280;60752;53.962;9.614;2022-10-31T08:34:35;102140.47;;;13.16
72675;BMP280;60752;53.962;9.614;2022-10-31T08:39:38;102147.06;;;13.19
72675;BMP280;60752;53.962;9.614;2022-10-31T08:44:38;102139.41;;;13.17
72675;BMP280;60752;53.962;9.614;2022-10-31T08:49:40;102147.31;;;13.17
72675;BMP280;60752;53.962;9.614;2022-10-31T08:54:41;102138.06;;;13.15
72675;BMP280;60752;53.962;9.614;2022-10-31T08:59:41;102138.13;;;13.20
72675;BMP280;60752;53.962;9.614;2022-10-31T09:04:43;102143.91;;;13.22
72675;BMP280;60752;53.962;9.614;2022-10-31T09:09:43;102153.97;;;13.25
72675;BMP280;60752;53.962;9.614;2022-10-31T09:14:44;102152.88;;;13.26
72675;BMP280;60752;53.962;9.614;2022-10-31T09:19:46;102139.91;;;13.14
72675;BMP280;60752;53.962;9.614;2022-10-31T09:24:46;102137.28;;;13.14
72675;BMP280;60752;53.962;9.614;2022-10-31T09:29:47;102133.94;;;13.19
72675;BMP280;60752;53.962;9.614;2022-10-31T09:34:48;102143.66;;;13.23
72675;BMP280;60752;53.962;9.614;2022-10-31T09:39:49;102147.06;;;13.19
72675;BMP280;60752;53.962;9.614;2022-10-31T09:44:55;102149.72;;;13.19
72675;BMP280;60752;53.962;9.614;2022-10-31T09:50:12;102153.13;;;13.19
72675;BMP280;60752;53.962;9.614;2022-10-31T09:55:16;102152.06;;;13.20
72675;BMP280;60752;53.962;9.614;2022-10-31T10:00:21;102148.38;;;13.21
72675;BMP280;60752;53.962;9.614;2022-10-31T10:05:27;102153.16;;;13.24
72675;BMP280;60752;53.962;9.614;2022-10-31T10:10:38;102160.03;;;13.30
72675;BMP280;60752;53.962;9.614;2022-10-31T10:15:54;102151.38;;;13.35
72675;BMP280;60752;53.962;9.614;2022-10-31T10:21:06;102151.94;;;13.37
72675;BMP280;60752;53.962;9.614;2022-10-31T10:26:16;102156.91;;;13.39
72675;BMP280;60752;53.962;9.614;2022-10-31T10:31:21;102150.34;;;13.41
72675;BMP280;60752;53.962;9.614;2022-10-31T10:36:29;102151.66;;;13.39
72675;BMP280;60752;53.962;9.614;2022-10-31T10:41:32;102141.91;;;13.39
72675;BMP280;60752;53.962;9.614;2022-10-31T10:46:40;102146.13;;;13.40
72675;BMP280;60752;53.962;9.614;2022-10-31T10:51:45;102138.03;;;13.42
72675;BMP280;60752;53.962;9.614;2022-10-31T10:56:55;102132.75;;;13.42
72675;BMP280;60752;53.962;9.614;2022-10-31T11:02:00;102133.59;;;13.47
72675;BMP280;60752;53.962;9.614;2022-10-31T11:07:04;102132.00;;;13.51
72675;BMP280;60752;53.962;9.614;2022-10-31T11:12:08;102123.84;;;13.48
72675;BMP280;60752;53.962;9.614;2022-10-31T11:17:25;102123.28;;;13.46
72675;BMP280;60752;53.962;9.614;2022-10-31T11:22:27;102133.59;;;13.47
72675;BMP280;60752;53.962;9.614;2022-10-31T11:27:28;102120.66;;;13.46
72675;BMP280;60752;53.962;9.614;2022-10-31T11:32:28;102111.97;;;13.45
72675;BMP280;60752;53.962;9.614;2022-10-31T11:37:32;102108.09;;;13.53
72675;BMP280;60752;53.962;9.614;2022-10-31T11:42:38;102102.00;;;13.52
72675;BMP280;60752;53.962;9.614;2022-10-31T11:47:41;102108.66;;;13.60
72675;BMP280;60752;53.962;9.614;2022-10-31T11:52:44;102107.09;;;13.69
72675;BMP280;60752;53.962;9.614;2022-10-31T11:57:46;102098.16;;;13.75
72675;BMP280;60752;53.962;9.614;2022-10-31T12:02:47;102099.78;;;13.76
72675;BMP280;60752;53.962;9.614;2022-10-31T12:07:49;102097.13;;;13.81
72675;BMP280;60752;53.962;9.614;2022-10-31T12:12:57;102096.38;;;13.86
72675;BMP280;60752;53.962;9.614;2022-10-31T12:23:46;102089.03;;;13.98
72675;BMP280;60752;53.962;9.614;2022-10-31T12:29:00;102084.56;;;13.93
72675;BMP280;60752;53.962;9.614;2022-10-31T12:34:23;102072.72;;;13.91
72675;BMP280;60752;53.962;9.614;2022-10-31T12:39:37;102067.19;;;13.98
72675;BMP280;60752;53.962;9.614;2022-10-31T12:44:56;102062.47;;;13.94
72675;BMP280;60752;53.962;9.614;2022-10-31T12:50:08;102063.25;;;13.95
72675;BMP280;60752;53.962;9.614;2022-10-31T12:55:30;102062.44;;;13.84
72675;BMP280;60752;53.962;9.614;2022-10-31T13:00:36;102068.78;;;13.93
72675;BMP280;60752;53.962;9.614;2022-10-31T13:05:40;102053.78;;;13.94
72675;BMP280;60752;53.962;9.614;2022-10-31T13:10:45;102051.94;;;13.94
72675;BMP280;60752;53.962;9.614;2022-10-31T13:15:48;102053.78;;;13.94
72675;BMP280;60752;53.962;9.614;2022-10-31T13:20:51;102052.47;;;13.97
72675;BMP280;60752;53.962;9.614;2022-10-31T13:25:54;102042.69;;;13.97
72675;BMP280;60752;53.962;9.614;2022-10-31T13:30:55;102031.94;;;13.93
72675;BMP280;60752;53.962;9.614;2022-10-31T13:36:06;102028.72;;;13.91
72675;BMP280;60752;53.962;9.614;2022-10-31T13:41:19;102013.22;;;13.90
72675;BMP280;60752;53.962;9.614;2022-10-31T13:46:23;102003.75;;;13.84
72675;BMP280;60752;53.962;9.614;2022-10-31T13:51:25;101999.50;;;13.78
72675;BMP280;60752;53.962;9.614;2022-10-31T13:56:29;101995.31;;;13.77
72675;BMP280;60752;53.962;9.614;2022-10-31T14:01:33;101992.69;;;13.82
72675;BMP280;60752;53.962;9.614;2022-10-31T14:06:42;101976.06;;;13.81
72675;BMP280;60752;53.962;9.614;2022-10-31T14:11:47;101982.38;;;13.85
72675;BMP280;60752;53.962;9.614;2022-10-31T14:16:54;101970.56;;;13.78
72675;BMP280;60752;53.962;9.614;2022-10-31T14:21:55;101951.59;;;13.66
72675;BMP280;60752;53.962;9.614;2022-10-31T14:26:58;101930.78;;;13.54
72675;BMP280;60752;53.962;9.614;2022-10-31T14:32:04;101939.47;;;13.59
72675;BMP280;60752;53.962;9.614;2022-10-31T14:37:49;101923.91;;;13.58
72675;BMP280;60752;53.962;9.614;2022-10-31T14:43:07;101908.94;;;13.53
72675;BMP280;60752;53.962;9.614;2022-10-31T14:48:25;101911.28;;;13.45
72675;BMP280;60752;53.962;9.614;2022-10-31T14:53:31;101916.03;;;13.38
72675;BMP280;60752;53.962;9.614;2022-10-31T14:58:39;101902.03;;;13.27
72675;BMP280;60752;53.962;9.614;2022-10-31T15:03:44;101902.81;;;13.27
72675;BMP280;60752;53.962;9.614;2022-10-31T15:08:48;101915.47;;;13.25
72675;BMP280;60752;53.962;9.614;2022-10-31T15:13:51;101903.59;;;13.23
72675;BMP280;60752;53.962;9.614;2022-10-31T15:18:53;101891.50;;;13.22
72675;BMP280;60752;53.962;9.614;2022-10-31T15:23:56;101895.47;;;13.19
72675;BMP280;60752;53.962;9.614;2022-10-31T15:29:00;101901.69;;;13.08
72675;BMP280;60752;53.962;9.614;2022-10-31T15:34:03;101887.72;;;12.97
72675;BMP280;60752;53.962;9.614;2022-10-31T15:39:04;101883.75;;;12.90
72675;BMP280;60752;53.962;9.614;2022-10-31T15:44:12;101872.97;;;12.86
72675;BMP280;60752;53.962;9.614;2022-10-31T15:49:26;101875.59;;;12.81
72675;BMP280;60752;53.962;9.614;2022-10-31T15:54:28;101878.44;;;12.75
72675;BMP280;60752;53.962;9.614;2022-10-31T15:59:31;101869.44;;;12.60
72675;BMP280;60752;53.962;9.614;2022-10-31T16:04:31;101873.88;;;12.60
72675;BMP280;60752;53.962;9.614;2022-10-31T16:09:32;101881.75;;;12.55
72675;BMP280;60752;53.962;9.614;2022-10-31T16:14:38;101880.94;;;12.54
72675;BMP280;60752;53.962;9.614;2022-10-31T16:19:47;101848.09;;;12.52
72675;BMP280;60752;53.962;9.614;2022-10-31T16:24:51;101865.69;;;12.51
72675;BMP280;60752;53.962;9.614;2022-10-31T16:29:54;101869.34;;;12.45
72675;BMP280;60752;53.962;9.614;2022-10-31T16:35:00;101856.19;;;12.40
72675;BMP280;60752;53.962;9.614;2022-10-31T16:40:00;101849.84;;;12.36
72675;BMP280;60752;53.962;9.614;2022-10-31T16:45:05;101853.53;;;12.35
72675;BMP280;60752;53.962;9.614;2022-10-31T16:50:12;101871.94;;;12.40
72675;BMP280;60752;53.962;9.614;2022-10-31T16:55:15;101862.97;;;12.36
72675;BMP280;60752;53.962;9.614;2022-10-31T17:00:18;101881.63;;;12.40
72675;BMP280;60752;53.962;9.614;2022-10-31T17:05:21;101852.75;;;12.40
72675;BMP280;60752;53.962;9.614;2022-10-31T17:10:21;101843.81;;;12.35
72675;BMP280;60752;53.962;9.614;2022-10-31T17:15:25;101837.69;;;12.25
72675;BMP280;60752;53.962;9.614;2022-10-31T17:20:27;101827.19;;;12.25
72675;BMP280;60752;53.962;9.614;2022-10-31T17:25:29;101856.66;;;12.32
72675;BMP280;60752;53.962;9.614;2022-10-31T17:30:32;101839.06;;;12.32
72675;BMP280;60752;53.962;9.614;2022-10-31T17:35:35;101846.41;;;12.30
72675;BMP280;60752;53.962;9.614;2022-10-31T17:40:39;101816.69;;;12.25
72675;BMP280;60752;53.962;9.614;2022-10-31T17:45:41;101836.66;;;12.26
72675;BMP280;60752;53.962;9.614;2022-10-31T17:50:41;101823.28;;;12.27
72675;BMP280;60752;53.962;9.614;2022-10-31T17:55:42;101815.94;;;12.29
72675;BMP280;60752;53.962;9.614;2022-10-31T18:00:44;101795.19;;;12.28
72675;BMP280;60752;53.962;9.614;2022-10-31T18:05:50;101812.03;;;12.32
72675;BMP280;60752;53.962;9.614;2022-10-31T18:10:51;101805.19;;;12.31
72675;BMP280;60752;53.962;9.614;2022-10-31T18:15:53;101805.22;;;12.36
72675;BMP280;60752;53.962;9.614;2022-10-31T18:20:56;101783.41;;;12.35
72675;BMP280;60752;53.962;9.614;2022-10-31T18:25:56;101777.41;;;12.40
72675;BMP280;60752;53.962;9.614;2022-10-31T18:30:59;101771.66;;;12.43
72675;BMP280;60752;53.962;9.614;2022-10-31T18:36:04;101760.31;;;12.32
72675;BMP280;60752;53.962;9.614;2022-10-31T18:41:05;101761.09;;;12.33
72675;BMP280;60752;53.962;9.614;2022-10-31T18:46:09;101761.59;;;12.30
72675;BMP280;60752;53.962;9.614;2022-10-31T18:51:10;101736.94;;;12.31
72675;BMP280;60752;53.962;9.614;2022-10-31T18:56:11;101736.94;;;12.31
72675;BMP280;60752;53.962;9.614;2022-10-31T19:01:14;101728.25;;;12.30
72675;BMP280;60752;53.962;9.614;2022-10-31T19:06:15;101726.44;;;12.31
72675;BMP280;60752;53.962;9.614;2022-10-31T19:11:15;101717.50;;;12.27
72675;BMP280;60752;53.962;9.614;2022-10-31T19:16:17;101720.88;;;12.22
72675;BMP280;60752;53.962;9.614;2022-10-31T19:21:17;101726.16;;;12.27
72675;BMP280;60752;53.962;9.614;2022-10-31T19:26:18;101729.84;;;12.31
72675;BMP280;60752;53.962;9.614;2022-10-31T19:31:20;101723.31;;;12.39
72675;BMP280;60752;53.962;9.614;2022-10-31T19:36:20;101728.56;;;12.39
72675;BMP280;60752;53.962;9.614;2022-10-31T19:41:22;101723.53;;;12.27
72675;BMP280;60752;53.962;9.614;2022-10-31T19:46:25;101712.00;;;12.33
72675;BMP280;60752;53.962;9.614;2022-10-31T19:51:26;101695.22;;;12.34
72675;BMP280;60752;53.962;9.614;2022-10-31T19:56:26;101689.16;;;12.34
72675;BMP280;60752;53.962;9.614;2022-10-31T20:01:28;101680.75;;;12.32
72675;BMP280;60752;53.962;9.614;2022-10-31T20:06:30;101660.78;;;12.26
72675;BMP280;60752;53.962;9.614;2022-10-31T20:11:31;101656.31;;;12.26
72675;BMP280;60752;53.962;9.614;2022-10-31T20:16:33;101634.00;;;12.24
72675;BMP280;60752;53.962;9.614;2022-10-31T20:21:35;101622.19;;;12.16
72675;BMP280;60752;53.962;9.614;2022-10-31T20:26:37;101636.91;;;12.27
72675;BMP280;60752;53.962;9.614;2022-10-31T20:31:39;101634.28;;;12.27
72675;BMP280;60752;53.962;9.614;2022-10-31T20:36:40;101611.13;;;12.19
72675;BMP280;60752;53.962;9.614;2022-10-31T20:41:41;101607.22;;;12.12
72675;BMP280;60752;53.962;9.614;2022-10-31T20:46:42;101613.78;;;12.14
72675;BMP280;60752;53.962;9.614;2022-10-31T20:51:43;101584.09;;;12.14
72675;BMP280;60752;53.962;9.614;2022-10-31T20:56:43;101585.13;;;12.13
72675;BMP280;60752;53.962;9.614;2022-10-31T21:01:45;101589.34;;;12.14
72675;BMP280;60752;53.962;9.614;2022-10-31T21:06:45;101587.75;;;12.13
72675;BMP280;60752;53.962;9.614;2022-10-31T21:11:46;101590.44;;;12.18
72675;BMP280;60752;53.962;9.614;2022-10-31T21:16:48;101589.38;;;12.24
72675;BMP280;60752;53.962;9.614;2022-10-31T21:21:48;101580.97;;;12.22
72675;BMP280;60752;53.962;9.614;2022-10-31T21:26:50;101575.47;;;12.18
72675;BMP280;60752;53.962;9.614;2022-10-31T21:31:54;101557.06;;;12.13
72675;BMP280;60752;53.962;9.614;2022-10-31T21:36:54;101549.75;;;12.15
72675;BMP280;60752;53.962;9.614;2022-10-31T21:41:55;101536.63;;;12.15
72675;BMP280;60752;53.962;9.614;2022-10-31T21:46:57;101527.94;;;12.20
72675;BMP280;60752;53.962;9.614;2022-10-31T21:51:57;101513.78;;;12.21
72675;BMP280;60752;53.962;9.614;2022-10-31T21:56:59;101508.53;;;12.21
72675;BMP280;60752;53.962;9.614;2022-10-31T22:02:01;101513.28;;;12.24
72675;BMP280;60752;53.962;9.614;2022-10-31T22:07:02;101506.69;;;12.16
72675;BMP280;60752;53.962;9.614;2022-10-31T22:12:02;101495.16;;;12.17
72675;BMP280;60752;53.962;9.614;2022-10-31T22:17:04;101487.00;;;12.19
72675;BMP280;60752;53.962;9.614;2022-10-31T22:22:04;101465.50;;;12.12
72675;BMP280;60752;53.962;9.614;2022-10-31T22:27:05;101455.28;;;12.10
72675;BMP280;60752;53.962;9.614;2022-10-31T22:32:07;101467.34;;;12.11
72675;BMP280;60752;53.962;9.614;2022-10-31T22:37:07;101465.75;;;12.20
72675;BMP280;60752;53.962;9.614;2022-10-31T22:42:07;101458.41;;;12.17
72675;BMP280;60752;53.962;9.614;2022-10-31T22:47:09;101443.47;;;12.23
72675;BMP280;60752;53.962;9.614;2022-10-31T22:52:10;101437.16;;;12.24
72675;BMP280;60752;53.962;9.614;2022-10-31T22:57:10;101418.25;;;12.22
72675;BMP280;60752;53.962;9.614;2022-10-31T23:02:13;101422.97;;;12.30
72675;BMP280;60752;53.962;9.614;2022-10-31T23:07:13;101421.13;;;12.30
72675;BMP280;60752;53.962;9.614;2022-10-31T23:12:14;101438.72;;;12.30
72675;BMP280;60752;53.962;9.614;2022-10-31T23:17:16;101428.50;;;12.28
72675;BMP280;60752;53.962;9.614;2022-10-31T23:22:16;101420.09;;;12.31
72675;BMP280;60752;53.962;9.614;2022-10-31T23:27:18;101399.09;;;12.31
72675;BMP280;60752;53.962;9.614;2022-10-31T23:32:22;101394.88;;;12.30
72675;BMP280;60752;53.962;9.614;2022-10-31T23:37:25;101390.94;;;12.33
72675;BMP280;60752;53.962;9.614;2022-10-31T23:42:28;101373.88;;;12.35
72675;BMP280;60752;53.962;9.614;2022-10-31T23:47:30;101365.22;;;12.40
72675;BMP280;60752;53.962;9.614;2022-10-31T23:52:30;101354.19;;;12.33
72675;BMP280;60752;53.962;9.614;2022-10-31T23:57:31;101342.66;;;12.29
